logo
Rechercher aéroport 
image banner adimage banner adimage banner ad
image banner ad

3N0 - Namorik

Situé à Namorik Atoll, Marshall Islands

ICAO - 3N0, IATA - NDK

Données fournies par Airmate  

Information générale

Coordonnées: N5°37'54" E168°7'30"
Élévation : 15 feet MSL.
Variation magnétique : 10° East
Voir autres Aéroports à Namorik

Données opérationnelles

Special qualification required
Heure actuelle UTC:
Heure actuelle locale:
Météo à : - ( 0 km )
METAR: PATQ 281237Z AUTO 26014KT 2 1/2SM -SN CLR M33/M36 A3002 RMK AO2 P0000 FZRANO TSNO
Voir NOTAMs / SUP AIP / TFR affectant cet aéroport [VIEW]
Fréquences de communication: [VIEW]

Pistes:

Identifiant RWYQFULongueur (ft)Largeur (ft)SurfaceLDA (ft)
07290045GRAVEL
25290045GRAVEL

Coordonnées de l'aéroport

Adresse: Namorik Atoll Marshall Islands

Vue satellite de 3N0